sensor_id;sensor_type;location;lat;lon;timestamp;pressure;altitude;pressure_sealevel;temperature;humidity
21824;BME280;11074;48.596;9.238;2024-02-28T00:01:59;98153.50;;;9.46;81.96
21824;BME280;11074;48.596;9.238;2024-02-28T00:04:24;98157.53;;;9.48;82.76
21824;BME280;11074;48.596;9.238;2024-02-28T00:06:50;98158.63;;;9.47;82.61
21824;BME280;11074;48.596;9.238;2024-02-28T00:09:15;98159.31;;;9.43;82.71
21824;BME280;11074;48.596;9.238;2024-02-28T00:11:45;98166.03;;;9.45;80.99
21824;BME280;11074;48.596;9.238;2024-02-28T00:14:11;98163.06;;;9.42;82.01
21824;BME280;11074;48.596;9.238;2024-02-28T00:16:42;98158.03;;;9.45;81.61
21824;BME280;11074;48.596;9.238;2024-02-28T00:19:08;98164.19;;;9.46;81.59
21824;BME280;11074;48.596;9.238;2024-02-28T00:21:34;98159.09;;;9.44;81.31
21824;BME280;11074;48.596;9.238;2024-02-28T00:23:59;98168.00;;;9.50;80.86
21824;BME280;11074;48.596;9.238;2024-02-28T00:26:25;98170.56;;;9.45;80.77
21824;BME280;11074;48.596;9.238;2024-02-28T00:28:50;98166.03;;;9.45;81.93
21824;BME280;11074;48.596;9.238;2024-02-28T00:31:15;98165.31;;;9.50;80.93
21824;BME280;11074;48.596;9.238;2024-02-28T00:33:41;98163.94;;;9.47;81.16
21824;BME280;11074;48.596;9.238;2024-02-28T00:36:06;98168.69;;;9.45;81.33
21824;BME280;11074;48.596;9.238;2024-02-28T00:38:31;98173.75;;;9.42;80.84
21824;BME280;11074;48.596;9.238;2024-02-28T00:40:57;98167.88;;;9.45;81.59
21824;BME280;11074;48.596;9.238;2024-02-28T00:43:22;98172.75;;;9.48;81.51
21824;BME280;11074;48.596;9.238;2024-02-28T00:45:47;98163.84;;;9.42;81.61
21824;BME280;11074;48.596;9.238;2024-02-28T00:48:12;98171.22;;;9.35;81.96
21824;BME280;11074;48.596;9.238;2024-02-28T00:50:38;98169.38;;;9.36;82.48
21824;BME280;11074;48.596;9.238;2024-02-28T00:53:03;98172.03;;;9.36;82.21
21824;BME280;11074;48.596;9.238;2024-02-28T00:55:28;98169.38;;;9.36;81.55
21824;BME280;11074;48.596;9.238;2024-02-28T00:57:54;98170.25;;;9.41;81.92
21824;BME280;11074;48.596;9.238;2024-02-28T01:00:19;98164.09;;;9.41;81.82
21824;BME280;11074;48.596;9.238;2024-02-28T01:02:44;98166.44;;;9.37;81.87
21824;BME280;11074;48.596;9.238;2024-02-28T01:05:10;98170.13;;;9.31;82.71
21824;BME280;11074;48.596;9.238;2024-02-28T01:07:35;98175.25;;;9.38;82.59
21824;BME280;11074;48.596;9.238;2024-02-28T01:10:01;98176.31;;;9.37;82.10
21824;BME280;11074;48.596;9.238;2024-02-28T01:12:26;98172.19;;;9.29;81.76
21824;BME280;11074;48.596;9.238;2024-02-28T01:14:52;98170.66;;;9.33;82.26
21824;BME280;11074;48.596;9.238;2024-02-28T01:17:17;98174.44;;;9.37;82.16
21824;BME280;11074;48.596;9.238;2024-02-28T01:19:42;98174.84;;;9.29;82.43
21824;BME280;11074;48.596;9.238;2024-02-28T01:22:07;98169.28;;;9.31;82.11
21824;BME280;11074;48.596;9.238;2024-02-28T01:24:34;98171.47;;;9.34;81.92
21824;BME280;11074;48.596;9.238;2024-02-28T01:26:59;98176.22;;;9.32;82.07
21824;BME280;11074;48.596;9.238;2024-02-28T01:29:25;98186.19;;;9.36;81.98
21824;BME280;11074;48.596;9.238;2024-02-28T01:31:50;98175.44;;;9.31;82.25
21824;BME280;11074;48.596;9.238;2024-02-28T01:34:15;98183.53;;;9.36;81.77
21824;BME280;11074;48.596;9.238;2024-02-28T01:36:40;98177.19;;;9.42;80.83
21824;BME280;11074;48.596;9.238;2024-02-28T01:39:06;98180.13;;;9.41;80.96
21824;BME280;11074;48.596;9.238;2024-02-28T01:41:31;98185.78;;;9.44;81.63
21824;BME280;11074;48.596;9.238;2024-02-28T01:43:56;98192.72;;;9.45;81.60
21824;BME280;11074;48.596;9.238;2024-02-28T01:48:47;98183.81;;;9.40;81.96
21824;BME280;11074;48.596;9.238;2024-02-28T01:51:13;98189.75;;;9.42;82.08
21824;BME280;11074;48.596;9.238;2024-02-28T01:53:38;98192.56;;;9.35;82.41
21824;BME280;11074;48.596;9.238;2024-02-28T01:56:04;98193.94;;;9.38;81.88
21824;BME280;11074;48.596;9.238;2024-02-28T01:58:29;98193.88;;;9.33;82.08
21824;BME280;11074;48.596;9.238;2024-02-28T02:00:55;98194.91;;;9.32;82.79
21824;BME280;11074;48.596;9.238;2024-02-28T02:03:21;98197.00;;;9.30;82.68
21824;BME280;11074;48.596;9.238;2024-02-28T02:05:46;98201.88;;;9.33;83.26
21824;BME280;11074;48.596;9.238;2024-02-28T02:08:12;98210.00;;;9.26;82.91
21824;BME280;11074;48.596;9.238;2024-02-28T02:10:37;98204.13;;;9.24;83.03
21824;BME280;11074;48.596;9.238;2024-02-28T02:13:06;98211.72;;;9.32;83.53
21824;BME280;11074;48.596;9.238;2024-02-28T02:15:31;98214.88;;;9.29;82.85
21824;BME280;11074;48.596;9.238;2024-02-28T02:17:57;98214.16;;;9.34;83.56
21824;BME280;11074;48.596;9.238;2024-02-28T02:20:22;98217.94;;;9.38;82.98
21824;BME280;11074;48.596;9.238;2024-02-28T02:22:48;98227.66;;;9.27;83.81
21824;BME280;11074;48.596;9.238;2024-02-28T02:25:13;98224.91;;;9.22;83.74
21824;BME280;11074;48.596;9.238;2024-02-28T02:27:38;98235.97;;;9.14;84.51
21824;BME280;11074;48.596;9.238;2024-02-28T02:30:04;98234.13;;;9.14;84.17
21824;BME280;11074;48.596;9.238;2024-02-28T02:32:30;98242.34;;;8.96;84.76
21824;BME280;11074;48.596;9.238;2024-02-28T02:34:55;98242.56;;;8.95;85.15
21824;BME280;11074;48.596;9.238;2024-02-28T02:37:20;98241.94;;;9.04;84.35
21824;BME280;11074;48.596;9.238;2024-02-28T02:39:46;98250.16;;;9.03;84.69
21824;BME280;11074;48.596;9.238;2024-02-28T02:42:11;98245.00;;;8.96;85.16
21824;BME280;11074;48.596;9.238;2024-02-28T02:44:39;98246.91;;;8.84;85.62
21824;BME280;11074;48.596;9.238;2024-02-28T02:47:05;98243.63;;;8.94;85.18
21824;BME280;11074;48.596;9.238;2024-02-28T02:49:30;98247.31;;;8.93;84.57
21824;BME280;11074;48.596;9.238;2024-02-28T02:51:55;98252.69;;;8.81;85.43
21824;BME280;11074;48.596;9.238;2024-02-28T02:54:20;98250.72;;;8.88;84.33
21824;BME280;11074;48.596;9.238;2024-02-28T02:56:46;98253.28;;;8.83;84.55
21824;BME280;11074;48.596;9.238;2024-02-28T02:59:11;98262.66;;;8.86;85.19
21824;BME280;11074;48.596;9.238;2024-02-28T03:01:39;98263.56;;;8.91;84.62
21824;BME280;11074;48.596;9.238;2024-02-28T03:04:05;98266.72;;;8.88;85.19
21824;BME280;11074;48.596;9.238;2024-02-28T03:06:30;98274.47;;;8.90;84.74
21824;BME280;11074;48.596;9.238;2024-02-28T03:08:55;98274.53;;;8.95;84.58
21824;BME280;11074;48.596;9.238;2024-02-28T03:11:20;98282.44;;;8.90;85.43
21824;BME280;11074;48.596;9.238;2024-02-28T03:13:46;98290.09;;;8.86;85.29
21824;BME280;11074;48.596;9.238;2024-02-28T03:16:11;98292.13;;;8.79;85.45
21824;BME280;11074;48.596;9.238;2024-02-28T03:18:36;98294.03;;;8.67;85.88
21824;BME280;11074;48.596;9.238;2024-02-28T03:21:03;98298.75;;;8.65;85.98
21824;BME280;11074;48.596;9.238;2024-02-28T03:23:28;98293.56;;;8.70;86.11
21824;BME280;11074;48.596;9.238;2024-02-28T03:25:53;98302.94;;;8.73;85.69
21824;BME280;11074;48.596;9.238;2024-02-28T03:28:19;98306.25;;;8.80;85.91
21824;BME280;11074;48.596;9.238;2024-02-28T03:30:44;98310.06;;;8.84;85.89
21824;BME280;11074;48.596;9.238;2024-02-28T03:33:10;98307.00;;;8.64;86.18
21824;BME280;11074;48.596;9.238;2024-02-28T03:35:35;98318.09;;;8.72;85.87
21824;BME280;11074;48.596;9.238;2024-02-28T03:38:00;98320.63;;;8.79;85.94
21824;BME280;11074;48.596;9.238;2024-02-28T03:40:25;98316.09;;;8.79;85.95
21824;BME280;11074;48.596;9.238;2024-02-28T03:42:51;98317.94;;;8.90;85.06
21824;BME280;11074;48.596;9.238;2024-02-28T03:45:16;98325.19;;;8.95;84.62
21824;BME280;11074;48.596;9.238;2024-02-28T03:47:41;98311.41;;;8.98;84.59
21824;BME280;11074;48.596;9.238;2024-02-28T03:50:07;98320.34;;;8.92;85.15
21824;BME280;11074;48.596;9.238;2024-02-28T03:52:32;98323.25;;;8.90;84.71
21824;BME280;11074;48.596;9.238;2024-02-28T03:54:58;98327.56;;;8.80;84.90
21824;BME280;11074;48.596;9.238;2024-02-28T03:57:23;98324.47;;;8.71;85.45
21824;BME280;11074;48.596;9.238;2024-02-28T03:59:48;98326.41;;;8.76;86.52
21824;BME280;11074;48.596;9.238;2024-02-28T04:02:13;98315.81;;;8.64;85.65
21824;BME280;11074;48.596;9.238;2024-02-28T04:04:39;98317.91;;;8.62;86.25
21824;BME280;11074;48.596;9.238;2024-02-28T04:07:04;98318.56;;;8.69;86.26
21824;BME280;11074;48.596;9.238;2024-02-28T04:09:29;98325.38;;;8.77;85.24
21824;BME280;11074;48.596;9.238;2024-02-28T04:11:55;98319.59;;;8.80;85.27
21824;BME280;11074;48.596;9.238;2024-02-28T04:14:20;98319.34;;;8.81;85.64
21824;BME280;11074;48.596;9.238;2024-02-28T04:16:45;98324.34;;;8.78;86.13
21824;BME280;11074;48.596;9.238;2024-02-28T04:19:11;98325.41;;;8.65;86.59
21824;BME280;11074;48.596;9.238;2024-02-28T04:21:37;98325.94;;;8.79;86.03
21824;BME280;11074;48.596;9.238;2024-02-28T04:24:03;98325.81;;;8.85;85.25
21824;BME280;11074;48.596;9.238;2024-02-28T04:26:28;98323.25;;;8.90;85.38
21824;BME280;11074;48.596;9.238;2024-02-28T04:28:54;98328.03;;;8.88;85.63
21824;BME280;11074;48.596;9.238;2024-02-28T04:31:19;98328.72;;;8.84;85.23
21824;BME280;11074;48.596;9.238;2024-02-28T04:33:45;98336.03;;;8.88;85.19
21824;BME280;11074;48.596;9.238;2024-02-28T04:36:10;98329.06;;;8.87;85.45
21824;BME280;11074;48.596;9.238;2024-02-28T04:38:35;98340.91;;;8.80;86.05
21824;BME280;11074;48.596;9.238;2024-02-28T04:41:00;98346.00;;;8.81;85.58
21824;BME280;11074;48.596;9.238;2024-02-28T04:43:26;98345.41;;;8.91;85.50
21824;BME280;11074;48.596;9.238;2024-02-28T04:45:51;98351.41;;;8.86;84.83
21824;BME280;11074;48.596;9.238;2024-02-28T04:48:16;98356.63;;;8.93;84.52
21824;BME280;11074;48.596;9.238;2024-02-28T04:50:41;98348.16;;;8.96;84.50
21824;BME280;11074;48.596;9.238;2024-02-28T04:53:07;98356.50;;;8.99;84.52
21824;BME280;11074;48.596;9.238;2024-02-28T04:55:32;98349.75;;;8.97;83.99
21824;BME280;11074;48.596;9.238;2024-02-28T04:57:57;98359.84;;;8.95;84.15
21824;BME280;11074;48.596;9.238;2024-02-28T05:00:23;98363.09;;;8.97;83.34
21824;BME280;11074;48.596;9.238;2024-02-28T05:02:48;98366.09;;;9.00;83.68
21824;BME280;11074;48.596;9.238;2024-02-28T05:05:13;98372.75;;;8.86;83.50
21824;BME280;11074;48.596;9.238;2024-02-28T05:07:39;98366.81;;;8.96;83.45
21824;BME280;11074;48.596;9.238;2024-02-28T05:10:04;98377.16;;;8.92;83.82
21824;BME280;11074;48.596;9.238;2024-02-28T05:12:30;98372.06;;;8.91;83.59
21824;BME280;11074;48.596;9.238;2024-02-28T05:14:55;98371.09;;;8.97;83.81
21824;BME280;11074;48.596;9.238;2024-02-28T05:17:21;98372.72;;;8.98;83.68
21824;BME280;11074;48.596;9.238;2024-02-28T05:19:46;98374.47;;;8.92;83.89
21824;BME280;11074;48.596;9.238;2024-02-28T05:22:11;98377.97;;;8.93;84.04
21824;BME280;11074;48.596;9.238;2024-02-28T05:24:37;98375.53;;;8.91;83.72
21824;BME280;11074;48.596;9.238;2024-02-28T05:27:02;98380.97;;;8.96;83.58
21824;BME280;11074;48.596;9.238;2024-02-28T05:29:27;98386.06;;;8.98;83.09
21824;BME280;11074;48.596;9.238;2024-02-28T05:31:53;98382.75;;;8.79;83.98
21824;BME280;11074;48.596;9.238;2024-02-28T05:34:18;98383.53;;;8.91;83.88
21824;BME280;11074;48.596;9.238;2024-02-28T05:36:44;98389.44;;;8.93;82.99
21824;BME280;11074;48.596;9.238;2024-02-28T05:39:09;98395.34;;;8.95;83.48
21824;BME280;11074;48.596;9.238;2024-02-28T05:41:34;98391.28;;;8.93;83.34
21824;BME280;11074;48.596;9.238;2024-02-28T05:43:59;98397.09;;;8.90;83.12
21824;BME280;11074;48.596;9.238;2024-02-28T05:46:25;98404.53;;;8.88;83.31
21824;BME280;11074;48.596;9.238;2024-02-28T05:48:50;98409.28;;;8.86;83.11
21824;BME280;11074;48.596;9.238;2024-02-28T05:51:16;98418.31;;;8.73;83.29
21824;BME280;11074;48.596;9.238;2024-02-28T05:53:41;98422.50;;;8.81;83.97
21824;BME280;11074;48.596;9.238;2024-02-28T05:56:10;98434.06;;;8.86;83.39
21824;BME280;11074;48.596;9.238;2024-02-28T05:58:40;98425.38;;;8.91;83.78
21824;BME280;11074;48.596;9.238;2024-02-28T06:01:05;98429.91;;;8.90;83.55
21824;BME280;11074;48.596;9.238;2024-02-28T06:03:32;98424.47;;;8.85;83.52
21824;BME280;11074;48.596;9.238;2024-02-28T06:05:58;98422.13;;;8.89;83.41
21824;BME280;11074;48.596;9.238;2024-02-28T06:08:23;98433.38;;;8.79;82.75
21824;BME280;11074;48.596;9.238;2024-02-28T06:10:49;98436.63;;;8.81;83.50
21824;BME280;11074;48.596;9.238;2024-02-28T06:13:17;98437.31;;;8.77;82.98
21824;BME280;11074;48.596;9.238;2024-02-28T06:15:43;98439.53;;;8.80;83.18
21824;BME280;11074;48.596;9.238;2024-02-28T06:18:08;98439.44;;;8.75;83.86
21824;BME280;11074;48.596;9.238;2024-02-28T06:20:34;98445.06;;;8.78;83.05
21824;BME280;11074;48.596;9.238;2024-02-28T06:22:59;98444.97;;;8.73;83.59
21824;BME280;11074;48.596;9.238;2024-02-28T06:25:25;98459.47;;;8.77;83.17
21824;BME280;11074;48.596;9.238;2024-02-28T06:27:52;98453.22;;;8.83;83.42
21824;BME280;11074;48.596;9.238;2024-02-28T06:30:18;98457.72;;;8.83;83.44
21824;BME280;11074;48.596;9.238;2024-02-28T06:32:43;98455.63;;;8.85;83.63
21824;BME280;11074;48.596;9.238;2024-02-28T06:35:09;98466.03;;;8.86;83.01
21824;BME280;11074;48.596;9.238;2024-02-28T06:37:35;98462.81;;;8.84;83.53
21824;BME280;11074;48.596;9.238;2024-02-28T06:40:02;98469.06;;;8.90;82.72
21824;BME280;11074;48.596;9.238;2024-02-28T06:42:31;98481.47;;;8.96;82.56
21824;BME280;11074;48.596;9.238;2024-02-28T06:44:56;98469.41;;;8.93;82.70
21824;BME280;11074;48.596;9.238;2024-02-28T06:47:21;98480.19;;;8.87;82.35
21824;BME280;11074;48.596;9.238;2024-02-28T06:49:46;98485.06;;;8.90;81.92
21824;BME280;11074;48.596;9.238;2024-02-28T06:52:12;98492.59;;;8.93;82.79
21824;BME280;11074;48.596;9.238;2024-02-28T06:54:37;98495.72;;;8.90;82.74
21824;BME280;11074;48.596;9.238;2024-02-28T06:57:02;98503.50;;;8.80;83.02
21824;BME280;11074;48.596;9.238;2024-02-28T06:59:28;98501.53;;;8.87;83.23
21824;BME280;11074;48.596;9.238;2024-02-28T07:01:54;98502.22;;;8.94;82.66
21824;BME280;11074;48.596;9.238;2024-02-28T07:04:19;98510.69;;;8.91;82.82
21824;BME280;11074;48.596;9.238;2024-02-28T07:06:45;98513.34;;;8.91;82.48
21824;BME280;11074;48.596;9.238;2024-02-28T07:09:11;98511.72;;;8.90;82.37
21824;BME280;11074;48.596;9.238;2024-02-28T07:11:38;98514.84;;;8.87;82.28
21824;BME280;11074;48.596;9.238;2024-02-28T07:14:03;98511.16;;;8.88;82.27
21824;BME280;11074;48.596;9.238;2024-02-28T07:16:29;98514.97;;;8.92;81.47
21824;BME280;11074;48.596;9.238;2024-02-28T07:18:55;98521.09;;;8.92;81.20
21824;BME280;11074;48.596;9.238;2024-02-28T07:21:20;98517.41;;;8.93;80.38
21824;BME280;11074;48.596;9.238;2024-02-28T07:23:45;98516.47;;;8.88;80.80
21824;BME280;11074;48.596;9.238;2024-02-28T07:26:15;98528.53;;;8.90;81.75
21824;BME280;11074;48.596;9.238;2024-02-28T07:28:41;98518.91;;;8.89;81.01
21824;BME280;11074;48.596;9.238;2024-02-28T07:31:06;98523.91;;;8.86;81.12
21824;BME280;11074;48.596;9.238;2024-02-28T07:33:32;98519.50;;;8.91;80.91
21824;BME280;11074;48.596;9.238;2024-02-28T07:35:57;98517.16;;;8.95;81.15
21824;BME280;11074;48.596;9.238;2024-02-28T07:38:26;98524.69;;;8.98;80.86
21824;BME280;11074;48.596;9.238;2024-02-28T07:40:52;98524.13;;;8.96;80.82
21824;BME280;11074;48.596;9.238;2024-02-28T07:43:18;98532.25;;;9.01;80.84
21824;BME280;11074;48.596;9.238;2024-02-28T07:45:43;98533.88;;;9.02;80.29
21824;BME280;11074;48.596;9.238;2024-02-28T07:48:08;98531.06;;;9.08;80.93
21824;BME280;11074;48.596;9.238;2024-02-28T07:50:33;98539.53;;;9.05;80.91
21824;BME280;11074;48.596;9.238;2024-02-28T07:52:59;98537.22;;;9.09;80.64
21824;BME280;11074;48.596;9.238;2024-02-28T07:55:24;98542.66;;;9.14;81.22
21824;BME280;11074;48.596;9.238;2024-02-28T07:57:53;98531.88;;;9.09;79.67
21824;BME280;11074;48.596;9.238;2024-02-28T08:00:19;98540.09;;;9.07;80.45
21824;BME280;11074;48.596;9.238;2024-02-28T08:02:45;98540.47;;;9.11;80.20
21824;BME280;11074;48.596;9.238;2024-02-28T08:05:10;98546.97;;;9.15;80.64
21824;BME280;11074;48.596;9.238;2024-02-28T08:07:36;98542.66;;;9.14;78.96
21824;BME280;11074;48.596;9.238;2024-02-28T08:10:02;98556.59;;;8.93;80.99
21824;BME280;11074;48.596;9.238;2024-02-28T08:12:27;98546.50;;;9.06;80.38
21824;BME280;11074;48.596;9.238;2024-02-28T08:14:52;98566.56;;;9.09;79.92
21824;BME280;11074;48.596;9.238;2024-02-28T08:17:18;98558.78;;;9.19;79.63
21824;BME280;11074;48.596;9.238;2024-02-28T08:19:43;98556.34;;;9.18;80.38
21824;BME280;11074;48.596;9.238;2024-02-28T08:22:08;98565.75;;;9.20;79.40
21824;BME280;11074;48.596;9.238;2024-02-28T08:24:34;98568.41;;;9.20;79.71
21824;BME280;11074;48.596;9.238;2024-02-28T08:26:59;98566.22;;;9.17;78.21
21824;BME280;11074;48.596;9.238;2024-02-28T08:29:25;98573.03;;;9.13;78.60
21824;BME280;11074;48.596;9.238;2024-02-28T08:31:51;98571.44;;;9.12;78.87
21824;BME280;11074;48.596;9.238;2024-02-28T08:34:16;98566.31;;;9.22;78.96
21824;BME280;11074;48.596;9.238;2024-02-28T08:36:42;98563.28;;;9.19;79.77
21824;BME280;11074;48.596;9.238;2024-02-28T08:39:08;98567.03;;;9.18;78.99
21824;BME280;11074;48.596;9.238;2024-02-28T08:41:34;98573.63;;;9.27;79.28
21824;BME280;11074;48.596;9.238;2024-02-28T08:43:59;98575.81;;;9.30;78.97
21824;BME280;11074;48.596;9.238;2024-02-28T08:46:25;98570.59;;;9.35;79.49
21824;BME280;11074;48.596;9.238;2024-02-28T08:48:50;98578.38;;;9.25;78.80
21824;BME280;11074;48.596;9.238;2024-02-28T08:51:15;98577.19;;;9.32;79.04
21824;BME280;11074;48.596;9.238;2024-02-28T08:53:40;98575.72;;;9.25;77.74
21824;BME280;11074;48.596;9.238;2024-02-28T08:56:06;98580.00;;;9.26;78.45
21824;BME280;11074;48.596;9.238;2024-02-28T08:58:31;98589.75;;;9.20;78.94
21824;BME280;11074;48.596;9.238;2024-02-28T09:00:56;98590.91;;;9.24;78.55
21824;BME280;11074;48.596;9.238;2024-02-28T09:03:22;98586.84;;;9.22;78.97
21824;BME280;11074;48.596;9.238;2024-02-28T09:05:47;98586.13;;;9.26;79.24
21824;BME280;11074;48.596;9.238;2024-02-28T09:08:13;98578.63;;;9.23;78.30
21824;BME280;11074;48.596;9.238;2024-02-28T09:10:38;98590.06;;;9.24;79.04
21824;BME280;11074;48.596;9.238;2024-02-28T09:13:03;98587.41;;;9.24;79.08
21824;BME280;11074;48.596;9.238;2024-02-28T09:15:28;98578.38;;;9.25;78.33
21824;BME280;11074;48.596;9.238;2024-02-28T09:17:54;98593.34;;;9.26;77.50
21824;BME280;11074;48.596;9.238;2024-02-28T09:20:19;98592.63;;;9.30;78.68
21824;BME280;11074;48.596;9.238;2024-02-28T09:22:44;98592.84;;;9.40;77.65
21824;BME280;11074;48.596;9.238;2024-02-28T09:25:10;98595.53;;;9.40;77.28
21824;BME280;11074;48.596;9.238;2024-02-28T09:27:36;98591.56;;;9.43;77.45
21824;BME280;11074;48.596;9.238;2024-02-28T09:30:02;98597.16;;;9.41;78.06
21824;BME280;11074;48.596;9.238;2024-02-28T09:32:27;98595.31;;;9.42;76.43
21824;BME280;11074;48.596;9.238;2024-02-28T09:34:53;98600.28;;;9.38;77.57
21824;BME280;11074;48.596;9.238;2024-02-28T09:37:18;98599.38;;;9.44;77.48
21824;BME280;11074;48.596;9.238;2024-02-28T09:39:45;98604.59;;;9.39;77.12
21824;BME280;11074;48.596;9.238;2024-02-28T09:42:10;98606.34;;;9.34;76.63
21824;BME280;11074;48.596;9.238;2024-02-28T09:44:39;98614.09;;;9.35;75.75
21824;BME280;11074;48.596;9.238;2024-02-28T09:47:05;98609.78;;;9.34;76.41
21824;BME280;11074;48.596;9.238;2024-02-28T09:49:31;98611.06;;;9.32;76.62
21824;BME280;11074;48.596;9.238;2024-02-28T09:51:56;98605.38;;;9.40;76.36
21824;BME280;11074;48.596;9.238;2024-02-28T09:54:22;98614.41;;;9.50;77.03
21824;BME280;11074;48.596;9.238;2024-02-28T09:56:48;98613.97;;;9.53;75.28
21824;BME280;11074;48.596;9.238;2024-02-28T09:59:15;98621.97;;;9.53;75.31
21824;BME280;11074;48.596;9.238;2024-02-28T10:01:53;98612.47;;;9.57;74.48
21824;BME280;11074;48.596;9.238;2024-02-28T10:04:19;98614.53;;;9.55;75.66
21824;BME280;11074;48.596;9.238;2024-02-28T10:06:46;98615.69;;;9.59;75.55
21824;BME280;11074;48.596;9.238;2024-02-28T10:09:14;98625.09;;;9.62;75.11
21824;BME280;11074;48.596;9.238;2024-02-28T10:11:41;98614.66;;;9.60;74.84
21824;BME280;11074;48.596;9.238;2024-02-28T10:14:08;98618.47;;;9.64;75.65
21824;BME280;11074;48.596;9.238;2024-02-28T10:16:34;98623.81;;;9.64;75.27
21824;BME280;11074;48.596;9.238;2024-02-28T10:18:59;98621.50;;;9.68;75.78
21824;BME280;11074;48.596;9.238;2024-02-28T10:21:24;98616.47;;;9.71;75.34
21824;BME280;11074;48.596;9.238;2024-02-28T10:23:51;98628.22;;;9.70;75.03
21824;BME280;11074;48.596;9.238;2024-02-28T10:26:16;98626.47;;;9.64;76.44
21824;BME280;11074;48.596;9.238;2024-02-28T10:28:41;98630.44;;;9.62;76.52
21824;BME280;11074;48.596;9.238;2024-02-28T10:31:09;98630.78;;;9.65;76.11
21824;BME280;11074;48.596;9.238;2024-02-28T10:33:35;98626.47;;;9.64;76.33
21824;BME280;11074;48.596;9.238;2024-02-28T10:36:02;98631.94;;;9.69;75.47
21824;BME280;11074;48.596;9.238;2024-02-28T10:38:31;98634.69;;;9.74;75.94
21824;BME280;11074;48.596;9.238;2024-02-28T10:40:59;98633.09;;;9.73;75.80
21824;BME280;11074;48.596;9.238;2024-02-28T10:43:28;98637.03;;;9.71;76.15
21824;BME280;11074;48.596;9.238;2024-02-28T10:45:56;98641.78;;;9.69;75.60
21824;BME280;11074;48.596;9.238;2024-02-28T10:48:22;98656.31;;;9.61;76.12
21824;BME280;11074;48.596;9.238;2024-02-28T10:50:48;98644.56;;;9.74;75.99
21824;BME280;11074;48.596;9.238;2024-02-28T10:53:14;98657.78;;;9.81;75.81
21824;BME280;11074;48.596;9.238;2024-02-28T10:55:42;98650.13;;;9.84;75.61
21824;BME280;11074;48.596;9.238;2024-02-28T10:58:10;98660.00;;;9.84;75.21
21824;BME280;11074;48.596;9.238;2024-02-28T11:00:40;98653.72;;;9.90;74.61
21824;BME280;11074;48.596;9.238;2024-02-28T11:03:13;98659.75;;;9.85;74.45
21824;BME280;11074;48.596;9.238;2024-02-28T11:05:42;98660.56;;;9.86;73.90
21824;BME280;11074;48.596;9.238;2024-02-28T11:08:11;98666.38;;;9.83;73.60
21824;BME280;11074;48.596;9.238;2024-02-28T11:10:42;98658.47;;;9.88;74.29
21824;BME280;11074;48.596;9.238;2024-02-28T11:13:09;98653.38;;;9.86;74.70
21824;BME280;11074;48.596;9.238;2024-02-28T11:15:36;98666.16;;;9.84;75.11
21824;BME280;11074;48.596;9.238;2024-02-28T11:18:08;98656.88;;;9.87;75.21
21824;BME280;11074;48.596;9.238;2024-02-28T11:20:34;98649.53;;;9.94;73.75
21824;BME280;11074;48.596;9.238;2024-02-28T11:23:00;98653.13;;;9.88;74.87
21824;BME280;11074;48.596;9.238;2024-02-28T11:25:25;98654.19;;;9.87;73.85
21824;BME280;11074;48.596;9.238;2024-02-28T11:27:51;98653.72;;;9.90;74.30
21824;BME280;11074;48.596;9.238;2024-02-28T11:30:17;98650.69;;;9.98;73.97
21824;BME280;11074;48.596;9.238;2024-02-28T11:32:42;98654.50;;;10.02;74.44
21824;BME280;11074;48.596;9.238;2024-02-28T11:35:08;98656.13;;;10.03;74.72
21824;BME280;11074;48.596;9.238;2024-02-28T11:37:33;98666.94;;;9.96;74.29
21824;BME280;11074;48.596;9.238;2024-02-28T11:39:59;98670.88;;;9.94;74.99
21824;BME280;11074;48.596;9.238;2024-02-28T11:42:24;98669.16;;;9.88;74.36
21824;BME280;11074;48.596;9.238;2024-02-28T11:44:53;98674.97;;;9.85;75.10
21824;BME280;11074;48.596;9.238;2024-02-28T11:47:20;98670.69;;;9.84;73.86
21824;BME280;11074;48.596;9.238;2024-02-28T11:49:47;98676.47;;;9.81;74.93
21824;BME280;11074;48.596;9.238;2024-02-28T11:52:12;98668.00;;;9.84;74.84
21824;BME280;11074;48.596;9.238;2024-02-28T11:54:39;98669.41;;;9.86;74.57
21824;BME280;11074;48.596;9.238;2024-02-28T11:57:04;98669.41;;;9.86;74.16
21824;BME280;11074;48.596;9.238;2024-02-28T11:59:29;98662.44;;;9.85;73.95
21824;BME280;11074;48.596;9.238;2024-02-28T12:01:55;98674.59;;;9.93;74.71
21824;BME280;11074;48.596;9.238;2024-02-28T12:04:24;98670.41;;;9.97;73.85
21824;BME280;11074;48.596;9.238;2024-02-28T12:06:50;98667.66;;;9.92;73.63
21824;BME280;11074;48.596;9.238;2024-02-28T12:09:15;98663.22;;;9.97;73.82
21824;BME280;11074;48.596;9.238;2024-02-28T12:11:43;98660.31;;;9.99;73.68
21824;BME280;11074;48.596;9.238;2024-02-28T12:14:09;98661.84;;;9.95;73.81
21824;BME280;11074;48.596;9.238;2024-02-28T12:16:41;98662.22;;;9.87;74.73
21824;BME280;11074;48.596;9.238;2024-02-28T12:19:08;98653.72;;;9.90;73.64
21824;BME280;11074;48.596;9.238;2024-02-28T12:21:33;98657.16;;;10.02;73.45
21824;BME280;11074;48.596;9.238;2024-02-28T12:23:58;98654.69;;;10.12;72.71
21824;BME280;11074;48.596;9.238;2024-02-28T12:26:24;98651.06;;;9.78;74.29
21824;BME280;11074;48.596;9.238;2024-02-28T12:28:49;98656.09;;;9.63;75.13
21824;BME280;11074;48.596;9.238;2024-02-28T12:31:14;98653.06;;;9.71;74.55
21824;BME280;11074;48.596;9.238;2024-02-28T12:33:40;98653.06;;;9.71;74.18
21824;BME280;11074;48.596;9.238;2024-02-28T12:36:07;98659.53;;;9.87;73.13
21824;BME280;11074;48.596;9.238;2024-02-28T12:38:32;98654.66;;;9.84;72.91
21824;BME280;11074;48.596;9.238;2024-02-28T12:40:58;98648.50;;;9.71;73.10
21824;BME280;11074;48.596;9.238;2024-02-28T12:43:23;98653.28;;;9.69;73.31
21824;BME280;11074;48.596;9.238;2024-02-28T12:45:50;98653.06;;;9.71;74.05
21824;BME280;11074;48.596;9.238;2024-02-28T12:48:15;98651.09;;;9.43;75.94
21824;BME280;11074;48.596;9.238;2024-02-28T12:50:40;98650.84;;;9.56;73.97
21824;BME280;11074;48.596;9.238;2024-02-28T12:53:06;98640.19;;;9.45;75.89
21824;BME280;11074;48.596;9.238;2024-02-28T12:55:31;98645.06;;;9.48;75.42
21824;BME280;11074;48.596;9.238;2024-02-28T12:57:57;98647.50;;;9.49;75.58
21824;BME280;11074;48.596;9.238;2024-02-28T13:00:24;98637.19;;;9.41;75.09
21824;BME280;11074;48.596;9.238;2024-02-28T13:02:50;98648.19;;;9.45;75.03
21824;BME280;11074;48.596;9.238;2024-02-28T13:05:15;98645.53;;;9.56;74.36